Flight Track Log - Related Links

Times and Time Zones

All times are in EDT time to prevent confusion due to time zone crossing. See the VH-FGR flight status page for this flight to view local times or setup timezone preferences in your user account.

Time Position Orientation Groundspeed Altitude Reporting Facility
EDT Latitude Longitude Course Direction KTS MPH feet Rate Location/Type
Mon 09:47:14 AM -19.7428 134.1740 184° South 23,000  Level Aus ATC (Calculated)
Mon 09:47:58 AM -19.7969 134.1701 184° South 23,000  Level Aus ATC (Calculated)
Mon 09:49:00 AM -19.8595 134.1656 184° South  Level FlightAware Approximate
Mon 09:50:00 AM -19.9202 134.1613 184° South  Level FlightAware Approximate
Mon 09:50:10 AM -19.9050 134.1623 184° South 23,000  Level Aus ATC (Calculated)
Mon 09:50:58 AM -19.9591 134.1584 184° South 23,000  Level Aus ATC (Calculated)
Mon 09:52:00 AM -20.0217 134.1539 184° South  Level FlightAware Approximate
Mon 09:53:00 AM -20.0824 134.1496 184° South  Level FlightAware Approximate
Mon 09:54:00 AM -20.1430 134.1452 184° South  Level FlightAware Approximate
Mon 09:55:00 AM -20.2036 134.1409 184° South  Level FlightAware Approximate
Mon 09:56:00 AM -20.2642 134.1365 184° South  Level FlightAware Approximate
Mon 09:57:00 AM -20.3249 134.1321 184° South  Level FlightAware Approximate
Mon 09:58:00 AM -20.3855 134.1277 184° South  Level FlightAware Approximate
Mon 09:59:00 AM -20.4461 134.1234 184° South  Level FlightAware Approximate
Mon 10:00:00 AM -20.5068 134.1190 184° South  Level FlightAware Approximate
Mon 10:01:00 AM -20.5674 134.1146 184° South  Level FlightAware Approximate
Mon 10:01:11 AM -20.4997 134.1195 360° North 23,000  Level Aus ATC (Calculated)
Mon 10:01:28 AM -20.4997 134.1195 184° South 23,000  Level Aus ATC (Calculated)
Mon 10:03:00 AM -20.5926 134.1128 184° South  Level FlightAware Approximate
Mon 10:03:00 AM -20.6078 134.1117 184° South 23,000  Level Aus ATC (Calculated)
Mon 10:04:00 AM -20.6684 134.1073 184° South  Level FlightAware Approximate
Mon 10:04:04 AM -20.6618 134.1078 184° South 23,000  Level Aus ATC (Calculated)
Mon 10:06:00 AM -20.7790 134.0993 184° South  Level FlightAware Approximate
Mon 10:06:28 AM -20.7699 134.0999 184° South 23,000  Level Aus ATC (Calculated)
Mon 10:07:54 AM -20.8780 134.0921 North 23,000  Level Aus ATC (Calculated)
Mon 10:08:00 AM -20.8686 134.0927 184° South  Level FlightAware Approximate
Mon 10:09:00 AM -20.9488 134.0869 184° South  Level FlightAware Approximate
Mon 10:10:00 AM -21.0132 134.0822 184° South  Level FlightAware Approximate
Mon 10:11:00 AM -21.0775 134.0775 184° South  Level FlightAware Approximate
Mon 10:12:00 AM -21.1419 134.0728 184° South  Level FlightAware Approximate
Mon 10:12:01 AM -21.0943 134.0763 184° South 23,000  Level Aus ATC (Calculated)
Mon 10:14:00 AM -21.2219 134.0670 184° South  Level FlightAware Approximate
Mon 10:15:00 AM -21.2862 134.0623 184° South  Level FlightAware Approximate
Mon 10:15:01 AM -21.2564 134.0645 184° South 23,000  Level Aus ATC (Calculated)
Mon 10:15:56 AM -21.3105 134.0605 184° South 23,000  Level Aus ATC (Calculated)
Mon 10:17:00 AM -21.3791 134.0555 184° South  Level FlightAware Approximate
Mon 10:18:00 AM -21.3148 134.0602 North  Level FlightAware Approximate
Mon 10:19:00 AM -21.3792 134.0562 184° South  Level Estimated
Mon 10:20:00 AM -21.4435 134.0515 184° South  Level FlightAware Approximate
Mon 10:21:00 AM -21.5079 134.0468 184° South  Level FlightAware Approximate
Mon 10:22:00 AM -21.5722 134.0421 184° South  Level FlightAware Approximate
Mon 10:23:00 AM -21.6366 134.0373 184° South  Level FlightAware Approximate
Mon 10:24:00 AM -21.7009 134.0326 184° South  Level FlightAware Approximate
Mon 10:25:00 AM -21.7652 134.0279 184° South  Level FlightAware Approximate
Mon 10:26:00 AM -21.8296 134.0231 184° South  Level FlightAware Approximate
Mon 10:27:00 AM -21.8939 134.0184 184° South  Level FlightAware Approximate
Mon 10:28:00 AM -21.9583 134.0136 184° South  Level FlightAware Approximate
Mon 10:29:00 AM -22.0226 134.0089 184° South  Level FlightAware Approximate
Mon 10:30:00 AM -22.0870 134.0041 184° South  Level FlightAware Approximate
Mon 10:31:00 AM -22.1514 133.9994 184° South  Level FlightAware Approximate
Mon 10:32:00 AM -22.2157 133.9946 184° South  Level FlightAware Approximate
Mon 10:33:00 AM -22.2801 133.9898 184° South  Level FlightAware Approximate
Mon 10:34:00 AM -22.3444 133.9850 184° South  Level FlightAware Approximate
Mon 10:35:00 AM -22.4088 133.9803 184° South  Level FlightAware Approximate
Mon 10:36:00 AM -22.4731 133.9755 184° South  Level FlightAware Approximate
Mon 10:36:00 AM -22.7042 133.9582 184° South 23,000  Level Aus ATC (Calculated)
Mon 10:37:00 AM -22.7686 133.9534 184° South  Level FlightAware Approximate
Mon 10:37:11 AM -22.7935 133.9516 360° North 500  Level Aus ATC (Calculated)
Mon 10:39:00 AM -22.6763 133.9516 North  Level FlightAware Approximate
Mon 10:39:54 AM -22.9809 133.9379 North 500  Level Aus ATC (Calculated)
Mon 10:41:00 AM -22.9101 133.9431 North  Level FlightAware Approximate
Mon 10:41:43 AM -23.1058 133.9288 North 500  Level Aus ATC (Calculated)
Mon 10:42:00 AM -22.9745 133.9402 184° South  Level Estimated
Mon 10:43:00 AM -23.1884 133.9227 184° South  Level FlightAware Approximate
Mon 10:44:00 AM -23.2527 133.9180 184° South  Level FlightAware Approximate
Mon 10:44:02 AM -23.2931 133.9150 184° South 500  Level Aus ATC (Calculated)
Mon 10:46:00 AM -23.4197 133.9057 184° South  Level FlightAware Approximate
Mon 10:46:21 AM -23.4805 133.9013 184° South 500  Level Aus ATC (Calculated)
Mon 10:48:00 AM -23.5867 133.8934 184° South  Level FlightAware Approximate
Mon 10:48:52 AM -23.6678 133.8874 North 500  Level Aus ATC (Calculated)
Mon 10:49:00 AM -23.6510 133.8887 184° South  Level FlightAware Approximate
Mon 10:50:00 AM -23.7407 133.8821 184° South  Level FlightAware Approximate
Mon 10:50:22 AM -23.7303 133.8828 184° South 500  Level Aus ATC (Calculated)
Mon 10:51:00 AM -23.7927 133.8782 122° Southeast -789 Descending Aus ATC (Calculated)
Mon 10:52:00 AM -23.8067 133.9022 119° Southeast  Level Estimated
Mon 10:53:00 AM -23.8067 133.9022 302° West  Level Estimated
Mon 10:54:00 AM -23.8067 133.9022 302° West  Level Estimated
Mon 10:55:00 AM -23.8067 133.9022 302° West  Level Estimated
Mon 10:56:00 AM -23.8067 133.9022 302° West  Level Estimated

Login

Don't have an account? Register now (free) for customized features, flight alerts, and more!